createdAt,value
2022-11-08T00:00:47.414Z,9.83
2022-11-08T00:03:16.312Z,9.82
2022-11-08T00:06:03.665Z,9.79
2022-11-08T00:08:51.315Z,9.76
2022-11-08T00:11:38.824Z,9.75
2022-11-08T00:14:07.742Z,9.74
2022-11-08T00:16:36.519Z,9.76
2022-11-08T00:19:05.271Z,9.75
2022-11-08T00:21:35.254Z,9.75
2022-11-08T00:24:04.209Z,9.76
2022-11-08T00:26:33.020Z,9.75
2022-11-08T00:29:02.265Z,9.70
2022-11-08T00:31:31.159Z,9.65
2022-11-08T00:33:59.944Z,9.61
2022-11-08T00:36:28.726Z,9.60
2022-11-08T00:38:57.536Z,9.56
2022-11-08T00:41:26.428Z,9.54
2022-11-08T00:43:55.241Z,9.55
2022-11-08T00:46:24.021Z,9.54
2022-11-08T00:48:52.820Z,9.52
2022-11-08T00:51:21.695Z,9.49
2022-11-08T00:53:50.697Z,9.48
2022-11-08T00:56:19.604Z,9.47
2022-11-08T00:58:48.385Z,9.45
2022-11-08T01:01:21.764Z,9.43
2022-11-08T01:03:51.261Z,9.40
2022-11-08T01:06:22.990Z,9.36
2022-11-08T01:08:52.519Z,9.32
2022-11-08T01:11:24.439Z,9.29
2022-11-08T01:13:57.690Z,9.25
2022-11-08T01:16:32.677Z,9.19
2022-11-08T01:19:02.489Z,9.15
2022-11-08T01:21:31.490Z,9.13
2022-11-08T01:24:00.683Z,9.09
2022-11-08T01:26:30.223Z,9.02
2022-11-08T01:28:59.402Z,8.94
2022-11-08T01:31:33.038Z,8.86
2022-11-08T01:34:01.848Z,8.80
2022-11-08T01:36:30.728Z,8.77
2022-11-08T01:38:59.567Z,8.75
2022-11-08T01:41:28.640Z,8.72
2022-11-08T01:43:59.995Z,8.67
2022-11-08T01:46:44.427Z,8.63
2022-11-08T01:49:39.101Z,8.60
2022-11-08T01:52:39.620Z,8.59
2022-11-08T01:55:30.576Z,8.56
2022-11-08T01:58:09.238Z,8.55
2022-11-08T02:00:39.698Z,8.57
2022-11-08T02:03:14.071Z,8.59
2022-11-08T02:05:46.535Z,8.60
2022-11-08T02:08:42.388Z,8.64
2022-11-08T02:11:16.229Z,8.68
2022-11-08T02:13:45.446Z,8.73
2022-11-08T02:16:16.665Z,8.75
2022-11-08T02:18:48.652Z,8.77
2022-11-08T02:21:48.889Z,8.77
2022-11-08T02:24:18.193Z,8.72
2022-11-08T02:26:50.237Z,8.72
2022-11-08T02:29:35.408Z,8.73
2022-11-08T02:32:06.516Z,8.72
2022-11-08T02:34:55.564Z,8.71
2022-11-08T02:37:27.297Z,8.69
2022-11-08T02:39:56.285Z,8.67
2022-11-08T02:42:25.559Z,8.62
2022-11-08T02:44:54.388Z,8.56
2022-11-08T02:47:25.635Z,8.52
2022-11-08T02:49:54.410Z,8.48
2022-11-08T02:52:23.279Z,8.43
2022-11-08T02:54:52.074Z,8.37
2022-11-08T02:57:20.838Z,8.31
2022-11-08T02:59:49.648Z,8.27
2022-11-08T03:02:18.758Z,8.21
2022-11-08T03:04:47.699Z,8.18
2022-11-08T03:07:20.772Z,8.18
2022-11-08T03:09:52.646Z,8.20
2022-11-08T03:12:21.546Z,8.24
2022-11-08T03:14:50.603Z,8.28
2022-11-08T03:17:19.487Z,8.32
2022-11-08T03:19:48.304Z,8.36
2022-11-08T03:22:17.197Z,8.40
2022-11-08T03:24:45.920Z,8.43
2022-11-08T03:27:15.456Z,8.42
2022-11-08T03:29:44.262Z,8.45
2022-11-08T03:32:14.412Z,8.48
2022-11-08T03:34:43.520Z,8.46
2022-11-08T03:37:12.339Z,8.42
2022-11-08T03:39:41.093Z,8.40
2022-11-08T03:42:10.438Z,8.40
2022-11-08T03:44:40.336Z,8.41
2022-11-08T03:47:09.667Z,8.40
2022-11-08T03:49:39.355Z,8.37
2022-11-08T03:52:08.250Z,8.38
2022-11-08T03:54:37.103Z,8.41
2022-11-08T03:57:06.729Z,8.44
2022-11-08T03:59:35.841Z,8.47
2022-11-08T04:02:04.824Z,8.45
2022-11-08T04:04:35.197Z,8.42
2022-11-08T04:07:03.974Z,8.40
2022-11-08T04:09:32.800Z,8.37
2022-11-08T04:12:20.358Z,8.32
2022-11-08T04:15:08.221Z,8.29
2022-11-08T04:17:55.531Z,8.25
2022-11-08T04:20:42.827Z,8.21
2022-11-08T04:23:12.054Z,8.13
2022-11-08T04:25:41.061Z,8.10
2022-11-08T04:28:10.201Z,8.07
2022-11-08T04:30:39.074Z,8.01
2022-11-08T04:33:07.866Z,7.96
2022-11-08T04:35:36.704Z,7.93
2022-11-08T04:38:05.523Z,7.91
2022-11-08T04:40:34.481Z,7.89
2022-11-08T04:43:03.335Z,7.88
2022-11-08T04:45:32.167Z,7.87
2022-11-08T04:48:01.104Z,7.82
2022-11-08T04:50:30.505Z,7.84
2022-11-08T04:52:59.499Z,7.87
2022-11-08T04:55:28.431Z,7.91
2022-11-08T04:57:59.259Z,7.94
2022-11-08T05:00:28.216Z,7.94
2022-11-08T05:02:56.994Z,7.92
2022-11-08T05:05:25.818Z,7.89
2022-11-08T05:07:55.309Z,7.85
2022-11-08T05:10:24.102Z,7.81
2022-11-08T05:12:57.132Z,7.77
2022-11-08T05:15:26.174Z,7.73
2022-11-08T05:17:55.195Z,7.68
2022-11-08T05:20:42.695Z,7.63
2022-11-08T05:23:26.734Z,7.58
2022-11-08T05:25:57.816Z,7.57
2022-11-08T05:28:26.664Z,7.58
2022-11-08T05:30:56.642Z,7.59
2022-11-08T05:33:26.262Z,7.60
2022-11-08T05:35:55.144Z,7.59
2022-11-08T05:38:24.077Z,7.58
2022-11-08T05:40:53.002Z,7.58
2022-11-08T05:43:21.824Z,7.58
2022-11-08T05:45:50.631Z,7.56
2022-11-08T05:48:19.600Z,7.53
2022-11-08T05:50:49.293Z,7.49
2022-11-08T05:53:18.621Z,7.42
2022-11-08T05:55:49.087Z,7.35
2022-11-08T05:58:17.965Z,7.30
2022-11-08T06:00:46.766Z,7.27
2022-11-08T06:03:19.705Z,7.27
2022-11-08T06:05:51.435Z,7.27
2022-11-08T06:08:20.432Z,7.24
2022-11-08T06:10:49.313Z,7.19
2022-11-08T06:13:18.083Z,7.15
2022-11-08T06:15:46.893Z,7.09
2022-11-08T06:18:15.734Z,7.02
2022-11-08T06:20:44.620Z,6.96
2022-11-08T06:23:13.373Z,6.90
2022-11-08T06:25:47.301Z,6.90
2022-11-08T06:28:16.403Z,6.91
2022-11-08T06:30:45.332Z,6.91
2022-11-08T06:33:14.231Z,6.88
2022-11-08T06:35:45.288Z,6.87
2022-11-08T06:38:14.139Z,6.91
2022-11-08T06:40:43.148Z,6.97
2022-11-08T06:43:17.973Z,7.00
2022-11-08T06:50:58.255Z,6.94
2022-11-08T06:53:27.130Z,6.97
2022-11-08T06:55:55.953Z,7.05
2022-11-08T06:58:24.829Z,7.11
2022-11-08T07:00:53.646Z,7.14
2022-11-08T07:03:22.686Z,7.19
2022-11-08T07:05:51.512Z,7.25
2022-11-08T07:08:23.757Z,7.29
2022-11-08T07:10:54.070Z,7.29
2022-11-08T07:13:23.155Z,7.29
2022-11-08T07:15:51.958Z,7.28
2022-11-08T07:18:20.891Z,7.32
2022-11-08T07:20:49.939Z,7.38
2022-11-08T07:23:20.090Z,7.40
2022-11-08T07:25:49.222Z,7.43
2022-11-08T07:28:19.690Z,7.49
2022-11-08T07:30:49.818Z,7.53
2022-11-08T07:33:19.064Z,7.59
2022-11-08T07:35:48.109Z,7.66
2022-11-08T07:38:16.917Z,7.78
2022-11-08T07:40:45.802Z,7.89
2022-11-08T07:43:16.697Z,8.00
2022-11-08T07:45:45.940Z,8.11
2022-11-08T07:48:14.876Z,8.19
2022-11-08T07:50:43.933Z,8.30
2022-11-08T07:53:12.986Z,8.41
2022-11-08T07:55:42.388Z,8.49
2022-11-08T07:58:12.026Z,8.57
2022-11-08T08:00:43.331Z,8.70
2022-11-08T08:03:14.783Z,8.86
2022-11-08T08:05:45.830Z,8.99
2022-11-08T08:08:14.724Z,9.09
2022-11-08T08:10:45.894Z,9.22
2022-11-08T08:13:15.994Z,9.34
2022-11-08T08:15:45.212Z,9.46
2022-11-08T08:18:14.181Z,9.55
2022-11-08T08:20:43.331Z,9.67
2022-11-08T08:23:12.240Z,9.81
2022-11-08T08:25:41.300Z,9.98
2022-11-08T08:28:11.404Z,10.15
2022-11-08T08:30:41.139Z,10.25
2022-11-08T08:33:32.444Z,10.35
2022-11-08T08:36:02.146Z,10.51
2022-11-08T08:38:33.461Z,10.69
2022-11-08T08:41:03.748Z,10.83
2022-11-08T08:43:32.816Z,10.88
2022-11-08T08:46:05.077Z,10.95
2022-11-08T08:48:36.647Z,11.00
2022-11-08T08:51:07.459Z,11.06
2022-11-08T08:53:40.176Z,11.17
2022-11-08T08:56:10.754Z,11.30
2022-11-08T08:58:40.502Z,11.39
2022-11-08T09:04:04.896Z,11.52
2022-11-08T09:06:34.655Z,11.54
2022-11-08T09:09:04.718Z,11.57
2022-11-08T09:11:34.151Z,11.63
2022-11-08T09:14:05.982Z,11.67
2022-11-08T09:16:36.489Z,11.77
2022-11-08T09:19:05.841Z,11.80
2022-11-08T09:21:35.046Z,11.85
2022-11-08T09:24:04.330Z,11.95
2022-11-08T09:26:33.587Z,12.13
2022-11-08T09:29:02.739Z,12.27
2022-11-08T09:31:32.154Z,12.43
2022-11-08T09:36:34.345Z,12.68
2022-11-08T09:39:04.299Z,12.78
2022-11-08T09:42:10.336Z,12.90
2022-11-08T09:45:20.965Z,13.03
2022-11-08T09:48:00.168Z,13.19
2022-11-08T09:50:47.723Z,13.39
2022-11-08T09:53:31.774Z,13.63
2022-11-08T09:56:16.113Z,13.85
2022-11-08T09:59:02.385Z,14.07
2022-11-08T10:01:35.490Z,14.24
2022-11-08T10:04:22.389Z,14.37
2022-11-08T10:07:41.540Z,14.40
2022-11-08T10:10:38.280Z,14.49
2022-11-08T10:13:21.111Z,14.62
2022-11-08T10:16:05.461Z,14.76
2022-11-08T10:19:01.222Z,15.00
2022-11-08T10:21:49.396Z,15.17
2022-11-08T10:24:27.610Z,15.27
2022-11-08T10:26:59.407Z,15.39
2022-11-08T10:29:44.186Z,15.61
2022-11-08T10:32:21.700Z,15.75
2022-11-08T10:35:32.510Z,15.90
2022-11-08T10:38:03.421Z,16.25
2022-11-08T10:40:47.542Z,16.63
2022-11-08T10:43:29.215Z,16.94
2022-11-08T10:45:58.049Z,17.22
2022-11-08T10:48:28.517Z,17.17
2022-11-08T10:50:57.400Z,17.07
2022-11-08T10:53:29.498Z,17.10
2022-11-08T10:56:06.344Z,17.15
2022-11-08T10:58:44.059Z,17.16
2022-11-08T11:01:24.469Z,17.04
2022-11-08T11:03:53.814Z,16.90
2022-11-08T11:06:32.821Z,16.80
2022-11-08T11:09:19.294Z,16.69
2022-11-08T11:11:59.038Z,16.57
2022-11-08T11:14:27.879Z,16.54
2022-11-08T11:17:16.879Z,16.46
2022-11-08T11:19:57.556Z,16.26
2022-11-08T11:22:35.567Z,16.01
2022-11-08T11:25:18.204Z,15.80
2022-11-08T11:27:58.876Z,15.67
2022-11-08T11:30:31.257Z,15.53
2022-11-08T11:33:24.161Z,15.41
2022-11-08T11:36:14.564Z,15.30
2022-11-08T11:39:05.185Z,15.25
2022-11-08T11:41:57.801Z,15.20
2022-11-08T11:44:41.793Z,15.13
2022-11-08T11:47:24.883Z,15.06
2022-11-08T11:49:59.245Z,15.06
2022-11-08T11:52:28.051Z,15.06
2022-11-08T11:54:57.171Z,15.09
2022-11-08T11:57:53.507Z,15.10
2022-11-08T12:00:22.570Z,15.05
2022-11-08T12:03:21.814Z,15.02
2022-11-08T12:06:29.383Z,14.91
2022-11-08T12:09:35.470Z,14.84
2022-11-08T12:12:41.975Z,14.80
2022-11-08T12:15:23.998Z,14.78
2022-11-08T12:18:37.002Z,14.82
2022-11-08T12:21:15.263Z,14.80
2022-11-08T12:24:37.863Z,14.81
2022-11-08T12:27:15.604Z,14.81
2022-11-08T12:30:15.897Z,14.75
2022-11-08T12:33:12.286Z,14.76
2022-11-08T12:36:16.527Z,14.80
2022-11-08T12:38:54.553Z,14.83
2022-11-08T12:42:34.803Z,14.86
2022-11-08T12:45:57.730Z,14.85
2022-11-08T12:48:52.663Z,14.84
2022-11-08T12:52:01.742Z,14.84
2022-11-08T12:54:44.199Z,14.80
2022-11-08T12:57:17.756Z,14.78
2022-11-08T13:00:08.746Z,14.74
2022-11-08T13:02:39.756Z,14.73
2022-11-08T13:05:14.432Z,14.74
2022-11-08T13:08:04.813Z,14.76
2022-11-08T13:10:58.747Z,14.75
2022-11-08T13:13:46.115Z,14.70
2022-11-08T13:16:24.934Z,14.69
2022-11-08T13:18:55.891Z,14.69
2022-11-08T13:21:27.807Z,14.71
2022-11-08T13:24:09.847Z,14.70
2022-11-08T13:26:53.748Z,14.68
2022-11-08T13:29:27.575Z,14.69
2022-11-08T13:32:25.230Z,14.67
2022-11-08T13:35:09.337Z,14.61
2022-11-08T13:38:05.991Z,14.55
2022-11-08T13:40:44.753Z,14.52
2022-11-08T13:43:26.215Z,14.52
2022-11-08T13:45:56.056Z,14.49
2022-11-08T13:48:25.281Z,14.46
2022-11-08T13:51:31.212Z,14.46
2022-11-08T13:54:02.777Z,14.43
2022-11-08T13:56:48.201Z,14.41
2022-11-08T13:59:32.219Z,14.40
2022-11-08T14:02:21.393Z,14.41
2022-11-08T14:04:50.367Z,14.39
2022-11-08T14:07:46.615Z,14.42
2022-11-08T14:10:35.637Z,14.43
2022-11-08T14:13:21.148Z,14.40
2022-11-08T14:16:03.899Z,14.36
2022-11-08T14:18:35.848Z,14.33
2022-11-08T14:21:05.716Z,14.33
2022-11-08T14:23:39.956Z,14.33
2022-11-08T14:26:23.704Z,14.31
2022-11-08T14:28:53.878Z,14.28
2022-11-08T14:31:31.399Z,14.27
2022-11-08T14:34:02.009Z,14.22
2022-11-08T14:36:32.539Z,14.17
2022-11-08T14:39:19.176Z,14.13
2022-11-08T14:41:53.815Z,14.10
2022-11-08T14:44:23.718Z,14.09
2022-11-08T14:46:53.389Z,14.07
2022-11-08T14:49:36.639Z,14.03
2022-11-08T14:52:19.595Z,13.98
2022-11-08T14:54:58.464Z,13.93
2022-11-08T14:57:30.668Z,13.87
2022-11-08T15:00:05.667Z,13.83
2022-11-08T15:02:34.845Z,13.76
2022-11-08T15:05:05.740Z,13.71
2022-11-08T15:07:34.608Z,13.68
2022-11-08T15:10:09.849Z,13.64
2022-11-08T15:12:43.303Z,13.59
2022-11-08T15:15:32.592Z,13.56
2022-11-08T15:18:26.410Z,13.50
2022-11-08T15:21:16.218Z,13.43
2022-11-08T15:23:53.812Z,13.35
2022-11-08T15:26:23.890Z,13.28
2022-11-08T15:29:19.551Z,13.21
2022-11-08T15:32:04.569Z,13.12
2022-11-08T15:34:41.315Z,13.05
2022-11-08T15:37:21.563Z,12.99
2022-11-08T15:39:51.340Z,12.93
2022-11-08T15:42:21.399Z,12.89
2022-11-08T15:45:23.321Z,12.86
2022-11-08T15:47:54.319Z,12.80
2022-11-08T15:50:30.612Z,12.76
2022-11-08T15:53:03.661Z,12.72
2022-11-08T15:55:39.484Z,12.68
2022-11-08T15:58:40.216Z,12.64
2022-11-08T16:01:20.183Z,12.58
2022-11-08T16:03:49.203Z,12.56
2022-11-08T16:06:18.406Z,12.53
2022-11-08T16:08:47.329Z,12.50
2022-11-08T16:11:23.435Z,12.46
2022-11-08T16:13:52.328Z,12.42
2022-11-08T16:16:21.348Z,12.42
2022-11-08T16:18:50.358Z,12.42
2022-11-08T16:21:19.185Z,12.42
2022-11-08T16:23:47.956Z,12.40
2022-11-08T16:26:20.512Z,12.39
2022-11-08T16:28:49.361Z,12.36
2022-11-08T16:31:18.604Z,12.32
2022-11-08T16:33:47.695Z,12.27
2022-11-08T16:36:23.448Z,12.22
2022-11-08T16:38:57.874Z,12.15
2022-11-08T16:41:26.797Z,12.08
2022-11-08T16:43:56.544Z,12.00
2022-11-08T16:46:25.515Z,11.97
2022-11-08T16:49:00.176Z,11.94
2022-11-08T16:51:30.644Z,11.89
2022-11-08T16:54:02.808Z,11.85
2022-11-08T16:56:31.633Z,11.81
2022-11-08T16:59:00.547Z,11.78
2022-11-08T17:01:33.374Z,11.74
2022-11-08T17:04:02.466Z,11.71
2022-11-08T17:06:31.302Z,11.67
2022-11-08T17:09:00.083Z,11.61
2022-11-08T17:11:28.887Z,11.55
2022-11-08T17:13:59.086Z,11.50
2022-11-08T17:16:27.900Z,11.45
2022-11-08T17:18:57.894Z,11.43
2022-11-08T17:24:21.235Z,11.34
2022-11-08T17:26:50.836Z,11.31
2022-11-08T17:29:20.049Z,11.28
2022-11-08T17:31:49.738Z,11.25
2022-11-08T17:34:18.677Z,11.21
2022-11-08T17:36:47.759Z,11.17
2022-11-08T17:39:16.780Z,11.14
2022-11-08T17:41:45.690Z,11.11
2022-11-08T17:44:14.739Z,11.07
2022-11-08T17:46:43.809Z,11.05
2022-11-08T17:49:12.692Z,11.06
2022-11-08T17:51:41.820Z,11.07
2022-11-08T17:54:10.637Z,11.07
2022-11-08T17:56:39.801Z,11.04
2022-11-08T17:59:08.625Z,10.97
2022-11-08T18:01:37.948Z,10.92
2022-11-08T18:04:07.194Z,10.91
2022-11-08T18:06:36.302Z,10.91
2022-11-08T18:09:07.394Z,10.93
2022-11-08T18:11:36.775Z,10.94
2022-11-08T18:14:05.692Z,10.94
2022-11-08T18:16:34.601Z,10.94
2022-11-08T18:19:03.396Z,10.93
2022-11-08T18:21:32.967Z,10.91
2022-11-08T18:24:01.918Z,10.89
2022-11-08T18:26:30.887Z,10.90
2022-11-08T18:29:02.356Z,10.88
2022-11-08T18:31:34.754Z,10.89
2022-11-08T18:34:03.747Z,10.87
2022-11-08T18:36:32.697Z,10.86
2022-11-08T18:39:02.741Z,10.82
2022-11-08T18:41:34.089Z,10.79
2022-11-08T18:44:03.208Z,10.77
2022-11-08T18:46:41.789Z,10.75
2022-11-08T18:49:11.544Z,10.72
2022-11-08T18:51:46.683Z,10.71
2022-11-08T18:54:50.556Z,10.69
2022-11-08T18:57:20.702Z,10.58
2022-11-08T18:59:50.162Z,10.55
2022-11-08T19:02:23.492Z,10.52
2022-11-08T19:04:54.003Z,10.54
2022-11-08T19:07:27.879Z,10.56
2022-11-08T19:09:57.042Z,10.55
2022-11-08T19:12:32.749Z,10.56
2022-11-08T19:15:05.704Z,10.55
2022-11-08T19:17:36.457Z,10.56
2022-11-08T19:20:06.284Z,10.56
2022-11-08T19:22:35.926Z,10.53
2022-11-08T19:25:06.461Z,10.52
2022-11-08T19:27:35.500Z,10.48
2022-11-08T19:30:05.306Z,10.47
2022-11-08T19:32:34.463Z,10.43
2022-11-08T19:35:03.469Z,10.39
2022-11-08T19:37:33.708Z,10.36
2022-11-08T19:40:04.484Z,10.33
2022-11-08T19:42:34.611Z,10.29
2022-11-08T19:45:03.678Z,10.26
2022-11-08T19:47:33.968Z,10.27
2022-11-08T19:50:02.999Z,10.26
2022-11-08T19:52:33.361Z,10.24
2022-11-08T19:55:02.424Z,10.21
2022-11-08T19:57:32.614Z,10.17
2022-11-08T20:00:02.022Z,10.11
2022-11-08T20:02:42.497Z,10.09
2022-11-08T20:05:11.580Z,10.09
2022-11-08T20:07:40.532Z,10.10
2022-11-08T20:10:09.900Z,10.08
2022-11-08T20:12:38.922Z,10.02
2022-11-08T20:15:08.220Z,9.96
2022-11-08T20:17:37.115Z,9.91
2022-11-08T20:20:06.506Z,9.87
2022-11-08T20:22:35.364Z,9.83
2022-11-08T20:25:05.123Z,9.80
2022-11-08T20:27:34.293Z,9.75
2022-11-08T20:30:03.972Z,9.70
2022-11-08T20:32:33.963Z,9.67
2022-11-08T20:35:04.208Z,9.64
2022-11-08T20:37:33.467Z,9.62
2022-11-08T20:40:02.532Z,9.63
2022-11-08T20:42:31.391Z,9.61
2022-11-08T20:45:00.281Z,9.60
2022-11-08T20:47:31.932Z,9.58
2022-11-08T20:50:05.254Z,9.56
2022-11-08T20:52:34.439Z,9.54
2022-11-08T20:55:05.346Z,9.50
2022-11-08T20:57:36.307Z,9.48
2022-11-08T21:00:13.049Z,9.46
2022-11-08T21:02:42.944Z,9.43
2022-11-08T21:05:11.918Z,9.39
2022-11-08T21:08:01.767Z,9.35
2022-11-08T21:10:43.054Z,9.30
2022-11-08T21:13:12.946Z,9.27
2022-11-08T21:15:47.391Z,9.27
2022-11-08T21:18:20.527Z,9.26
2022-11-08T21:20:51.590Z,9.25
2022-11-08T21:23:20.590Z,9.23
2022-11-08T21:25:51.503Z,9.20
2022-11-08T21:28:20.643Z,9.14
2022-11-08T21:30:50.000Z,9.08
2022-11-08T21:33:19.490Z,9.02
2022-11-08T21:35:54.101Z,8.96
2022-11-08T21:38:24.375Z,8.90
2022-11-08T21:40:55.006Z,8.83
2022-11-08T21:43:24.320Z,8.78
2022-11-08T21:45:53.531Z,8.72
2022-11-08T21:48:23.518Z,8.68
2022-11-08T21:50:52.551Z,8.66
2022-11-08T21:53:21.566Z,8.64
2022-11-08T21:55:58.121Z,8.61
2022-11-08T21:58:27.113Z,8.61
2022-11-08T22:00:56.147Z,8.59
2022-11-08T22:03:25.153Z,8.55
2022-11-08T22:05:54.161Z,8.51
2022-11-08T22:08:23.086Z,8.45
2022-11-08T22:10:52.105Z,8.38
2022-11-08T22:13:21.100Z,8.32
2022-11-08T22:15:50.075Z,8.29
2022-11-08T22:18:26.392Z,8.27
2022-11-08T22:21:26.601Z,8.24
2022-11-08T22:23:56.699Z,8.19
2022-11-08T22:26:25.817Z,8.16
2022-11-08T22:28:57.696Z,8.13
2022-11-08T22:31:27.267Z,8.03
2022-11-08T22:33:56.207Z,8.04
2022-11-08T22:36:25.678Z,8.08
2022-11-08T22:38:55.315Z,8.09
2022-11-08T22:41:25.284Z,8.07
2022-11-08T22:43:54.509Z,8.06
2022-11-08T22:46:23.509Z,8.06
2022-11-08T22:48:52.442Z,8.07
2022-11-08T22:51:21.502Z,8.10
2022-11-08T22:53:50.389Z,8.11
2022-11-08T22:56:19.365Z,8.12
2022-11-08T22:58:48.378Z,8.13
2022-11-08T23:01:17.412Z,8.13
2022-11-08T23:03:48.027Z,8.11
2022-11-08T23:06:17.674Z,8.10
2022-11-08T23:08:47.911Z,8.11
2022-11-08T23:11:35.781Z,8.10
2022-11-08T23:14:23.896Z,8.08
2022-11-08T23:16:52.799Z,8.04
2022-11-08T23:19:42.945Z,8.03
2022-11-08T23:22:34.993Z,7.99
2022-11-08T23:25:05.319Z,7.97
2022-11-08T23:27:55.775Z,7.97
2022-11-08T23:30:43.205Z,7.98
2022-11-08T23:33:12.205Z,7.98
2022-11-08T23:36:01.054Z,7.99
2022-11-08T23:38:30.113Z,7.96
2022-11-08T23:41:18.289Z,7.92
2022-11-08T23:44:05.769Z,7.87
2022-11-08T23:46:34.668Z,7.84
2022-11-08T23:49:04.311Z,7.84
2022-11-08T23:51:33.622Z,7.85
2022-11-08T23:54:02.537Z,7.87
2022-11-08T23:56:31.473Z,7.91
2022-11-08T23:59:01.180Z,7.94
